sensor_id;sensor_type;location;lat;lon;timestamp;P1;durP1;ratioP1;P2;durP2;ratioP2
28170;SDS011;15458;53.346;-1.688;2022-11-11T00:01:22;11.73;;;3.25;;
28170;SDS011;15458;53.346;-1.688;2022-11-11T00:03:47;10.48;;;3.40;;
28170;SDS011;15458;53.346;-1.688;2022-11-11T00:06:14;8.95;;;3.05;;
28170;SDS011;15458;53.346;-1.688;2022-11-11T00:08:41;9.65;;;3.08;;
28170;SDS011;15458;53.346;-1.688;2022-11-11T00:11:14;13.18;;;4.05;;
28170;SDS011;15458;53.346;-1.688;2022-11-11T00:13:41;7.60;;;3.47;;
28170;SDS011;15458;53.346;-1.688;2022-11-11T00:16:11;11.30;;;3.70;;
28170;SDS011;15458;53.346;-1.688;2022-11-11T00:18:41;14.27;;;4.43;;
28170;SDS011;15458;53.346;-1.688;2022-11-11T00:21:26;7.55;;;3.85;;
28170;SDS011;15458;53.346;-1.688;2022-11-11T00:27:14;14.07;;;5.28;;
28170;SDS011;15458;53.346;-1.688;2022-11-11T00:29:44;14.77;;;4.47;;
28170;SDS011;15458;53.346;-1.688;2022-11-11T00:32:11;9.30;;;3.83;;
28170;SDS011;15458;53.346;-1.688;2022-11-11T00:34:50;7.15;;;4.10;;
28170;SDS011;15458;53.346;-1.688;2022-11-11T00:37:36;9.13;;;3.90;;
28170;SDS011;15458;53.346;-1.688;2022-11-11T00:40:11;10.07;;;3.10;;
28170;SDS011;15458;53.346;-1.688;2022-11-11T00:42:51;9.75;;;4.13;;
28170;SDS011;15458;53.346;-1.688;2022-11-11T00:45:17;10.43;;;3.45;;
28170;SDS011;15458;53.346;-1.688;2022-11-11T00:47:43;8.77;;;3.42;;
28170;SDS011;15458;53.346;-1.688;2022-11-11T00:50:27;8.32;;;3.53;;
28170;SDS011;15458;53.346;-1.688;2022-11-11T00:53:16;6.25;;;2.97;;
28170;SDS011;15458;53.346;-1.688;2022-11-11T00:55:44;8.02;;;2.67;;
28170;SDS011;15458;53.346;-1.688;2022-11-11T00:58:09;9.18;;;3.67;;
28170;SDS011;15458;53.346;-1.688;2022-11-11T01:00:35;7.53;;;3.00;;
28170;SDS011;15458;53.346;-1.688;2022-11-11T01:03:01;7.32;;;3.30;;
28170;SDS011;15458;53.346;-1.688;2022-11-11T01:05:28;8.88;;;3.80;;
28170;SDS011;15458;53.346;-1.688;2022-11-11T01:07:53;6.97;;;2.90;;
28170;SDS011;15458;53.346;-1.688;2022-11-11T01:10:21;8.77;;;3.45;;
28170;SDS011;15458;53.346;-1.688;2022-11-11T01:13:04;7.97;;;3.10;;
28170;SDS011;15458;53.346;-1.688;2022-11-11T01:15:41;9.20;;;3.38;;
28170;SDS011;15458;53.346;-1.688;2022-11-11T01:18:09;12.10;;;3.28;;
28170;SDS011;15458;53.346;-1.688;2022-11-11T01:20:40;11.20;;;3.55;;
28170;SDS011;15458;53.346;-1.688;2022-11-11T01:23:07;10.27;;;3.83;;
28170;SDS011;15458;53.346;-1.688;2022-11-11T01:25:34;11.02;;;3.10;;
28170;SDS011;15458;53.346;-1.688;2022-11-11T01:28:01;10.40;;;3.50;;
28170;SDS011;15458;53.346;-1.688;2022-11-11T01:30:28;6.80;;;2.80;;
28170;SDS011;15458;53.346;-1.688;2022-11-11T01:32:56;7.43;;;2.90;;
28170;SDS011;15458;53.346;-1.688;2022-11-11T01:35:22;8.75;;;3.05;;
28170;SDS011;15458;53.346;-1.688;2022-11-11T01:37:49;7.82;;;2.67;;
28170;SDS011;15458;53.346;-1.688;2022-11-11T01:40:15;11.65;;;3.65;;
28170;SDS011;15458;53.346;-1.688;2022-11-11T01:42:50;9.30;;;3.22;;
28170;SDS011;15458;53.346;-1.688;2022-11-11T01:48:12;6.10;;;2.53;;
28170;SDS011;15458;53.346;-1.688;2022-11-11T01:51:02;9.35;;;2.10;;
28170;SDS011;15458;53.346;-1.688;2022-11-11T01:53:34;4.60;;;2.22;;
28170;SDS011;15458;53.346;-1.688;2022-11-11T01:56:00;4.82;;;2.38;;
28170;SDS011;15458;53.346;-1.688;2022-11-11T01:58:27;7.15;;;2.15;;
28170;SDS011;15458;53.346;-1.688;2022-11-11T02:00:55;5.03;;;2.30;;
28170;SDS011;15458;53.346;-1.688;2022-11-11T02:03:24;5.03;;;2.55;;
28170;SDS011;15458;53.346;-1.688;2022-11-11T02:05:52;8.10;;;1.85;;
28170;SDS011;15458;53.346;-1.688;2022-11-11T02:08:21;6.25;;;1.80;;
28170;SDS011;15458;53.346;-1.688;2022-11-11T02:11:04;8.13;;;1.90;;
28170;SDS011;15458;53.346;-1.688;2022-11-11T02:13:41;7.53;;;1.88;;
28170;SDS011;15458;53.346;-1.688;2022-11-11T02:16:26;5.82;;;1.90;;
28170;SDS011;15458;53.346;-1.688;2022-11-11T02:18:53;8.95;;;2.10;;
28170;SDS011;15458;53.346;-1.688;2022-11-11T02:21:22;5.03;;;1.65;;
28170;SDS011;15458;53.346;-1.688;2022-11-11T02:24:11;7.78;;;1.70;;
28170;SDS011;15458;53.346;-1.688;2022-11-11T02:26:41;7.60;;;3.25;;
28170;SDS011;15458;53.346;-1.688;2022-11-11T02:29:10;5.13;;;1.95;;
28170;SDS011;15458;53.346;-1.688;2022-11-11T02:31:41;6.13;;;2.28;;
28170;SDS011;15458;53.346;-1.688;2022-11-11T02:34:07;5.22;;;2.25;;
28170;SDS011;15458;53.346;-1.688;2022-11-11T02:36:33;9.48;;;2.55;;
28170;SDS011;15458;53.346;-1.688;2022-11-11T02:39:00;7.57;;;2.40;;
28170;SDS011;15458;53.346;-1.688;2022-11-11T02:41:25;5.22;;;2.00;;
28170;SDS011;15458;53.346;-1.688;2022-11-11T02:44:10;4.93;;;2.03;;
28170;SDS011;15458;53.346;-1.688;2022-11-11T02:46:35;5.68;;;2.05;;
28170;SDS011;15458;53.346;-1.688;2022-11-11T02:49:01;7.45;;;1.98;;
28170;SDS011;15458;53.346;-1.688;2022-11-11T02:51:27;6.22;;;1.70;;
28170;SDS011;15458;53.346;-1.688;2022-11-11T02:53:52;6.75;;;1.92;;
28170;SDS011;15458;53.346;-1.688;2022-11-11T02:56:23;3.00;;;1.83;;
28170;SDS011;15458;53.346;-1.688;2022-11-11T02:59:07;10.57;;;2.55;;
28170;SDS011;15458;53.346;-1.688;2022-11-11T03:01:33;6.22;;;1.83;;
28170;SDS011;15458;53.346;-1.688;2022-11-11T03:03:59;4.97;;;1.50;;
28170;SDS011;15458;53.346;-1.688;2022-11-11T03:06:25;7.30;;;1.80;;
28170;SDS011;15458;53.346;-1.688;2022-11-11T03:08:50;5.82;;;1.73;;
28170;SDS011;15458;53.346;-1.688;2022-11-11T03:11:18;3.75;;;1.52;;
28170;SDS011;15458;53.346;-1.688;2022-11-11T03:13:54;6.32;;;2.63;;
28170;SDS011;15458;53.346;-1.688;2022-11-11T03:16:22;7.20;;;1.95;;
28170;SDS011;15458;53.346;-1.688;2022-11-11T03:19:07;4.95;;;1.60;;
28170;SDS011;15458;53.346;-1.688;2022-11-11T03:21:33;7.82;;;1.88;;
28170;SDS011;15458;53.346;-1.688;2022-11-11T03:23:58;7.50;;;1.92;;
28170;SDS011;15458;53.346;-1.688;2022-11-11T03:26:24;6.82;;;2.08;;
28170;SDS011;15458;53.346;-1.688;2022-11-11T03:28:50;3.30;;;1.77;;
28170;SDS011;15458;53.346;-1.688;2022-11-11T03:31:16;5.55;;;1.85;;
28170;SDS011;15458;53.346;-1.688;2022-11-11T03:33:42;8.18;;;2.15;;
28170;SDS011;15458;53.346;-1.688;2022-11-11T03:36:08;6.13;;;1.98;;
28170;SDS011;15458;53.346;-1.688;2022-11-11T03:38:33;7.45;;;2.58;;
28170;SDS011;15458;53.346;-1.688;2022-11-11T03:40:59;6.13;;;2.10;;
28170;SDS011;15458;53.346;-1.688;2022-11-11T03:43:26;4.97;;;2.10;;
28170;SDS011;15458;53.346;-1.688;2022-11-11T03:45:54;3.97;;;1.95;;
28170;SDS011;15458;53.346;-1.688;2022-11-11T03:48:22;5.20;;;1.90;;
28170;SDS011;15458;53.346;-1.688;2022-11-11T03:50:48;6.10;;;1.60;;
28170;SDS011;15458;53.346;-1.688;2022-11-11T03:53:15;7.10;;;1.67;;
28170;SDS011;15458;53.346;-1.688;2022-11-11T03:55:44;4.07;;;1.50;;
28170;SDS011;15458;53.346;-1.688;2022-11-11T03:58:10;4.78;;;1.67;;
28170;SDS011;15458;53.346;-1.688;2022-11-11T04:00:36;2.75;;;1.35;;
28170;SDS011;15458;53.346;-1.688;2022-11-11T04:05:50;8.65;;;1.83;;
28170;SDS011;15458;53.346;-1.688;2022-11-11T04:08:36;5.22;;;1.50;;
28170;SDS011;15458;53.346;-1.688;2022-11-11T04:11:24;3.35;;;1.27;;
28170;SDS011;15458;53.346;-1.688;2022-11-11T04:13:52;6.00;;;1.35;;
28170;SDS011;15458;53.346;-1.688;2022-11-11T04:16:44;11.27;;;1.80;;
28170;SDS011;15458;53.346;-1.688;2022-11-11T04:19:10;2.65;;;1.65;;
28170;SDS011;15458;53.346;-1.688;2022-11-11T04:21:54;5.43;;;1.90;;
28170;SDS011;15458;53.346;-1.688;2022-11-11T04:24:20;9.48;;;2.20;;
28170;SDS011;15458;53.346;-1.688;2022-11-11T04:27:06;4.72;;;1.70;;
28170;SDS011;15458;53.346;-1.688;2022-11-11T04:29:36;4.93;;;1.85;;
28170;SDS011;15458;53.346;-1.688;2022-11-11T04:32:09;6.60;;;2.08;;
28170;SDS011;15458;53.346;-1.688;2022-11-11T04:35:03;7.22;;;1.85;;
28170;SDS011;15458;53.346;-1.688;2022-11-11T04:37:31;7.82;;;1.83;;
28170;SDS011;15458;53.346;-1.688;2022-11-11T04:40:02;9.32;;;1.95;;
28170;SDS011;15458;53.346;-1.688;2022-11-11T04:42:46;3.72;;;1.63;;
28170;SDS011;15458;53.346;-1.688;2022-11-11T04:45:12;3.50;;;1.77;;
28170;SDS011;15458;53.346;-1.688;2022-11-11T04:50:27;7.50;;;2.00;;
28170;SDS011;15458;53.346;-1.688;2022-11-11T04:53:14;4.18;;;1.60;;
28170;SDS011;15458;53.346;-1.688;2022-11-11T04:55:40;6.90;;;1.92;;
28170;SDS011;15458;53.346;-1.688;2022-11-11T04:58:26;4.90;;;1.55;;
28170;SDS011;15458;53.346;-1.688;2022-11-11T05:00:53;4.65;;;1.75;;
28170;SDS011;15458;53.346;-1.688;2022-11-11T05:03:19;5.07;;;1.92;;
28170;SDS011;15458;53.346;-1.688;2022-11-11T05:05:49;12.38;;;1.88;;
28170;SDS011;15458;53.346;-1.688;2022-11-11T05:08:34;4.88;;;2.03;;
28170;SDS011;15458;53.346;-1.688;2022-11-11T05:11:26;5.18;;;2.15;;
28170;SDS011;15458;53.346;-1.688;2022-11-11T05:13:54;5.15;;;1.73;;
28170;SDS011;15458;53.346;-1.688;2022-11-11T05:16:41;7.78;;;2.40;;
28170;SDS011;15458;53.346;-1.688;2022-11-11T05:19:27;4.60;;;1.85;;
28170;SDS011;15458;53.346;-1.688;2022-11-11T05:22:14;3.05;;;1.38;;
28170;SDS011;15458;53.346;-1.688;2022-11-11T05:24:44;6.70;;;1.63;;
28170;SDS011;15458;53.346;-1.688;2022-11-11T05:27:28;3.17;;;1.40;;
28170;SDS011;15458;53.346;-1.688;2022-11-11T05:29:54;6.07;;;1.60;;
28170;SDS011;15458;53.346;-1.688;2022-11-11T05:32:21;3.13;;;1.90;;
28170;SDS011;15458;53.346;-1.688;2022-11-11T05:34:47;2.30;;;1.23;;
28170;SDS011;15458;53.346;-1.688;2022-11-11T05:37:14;4.15;;;1.50;;
28170;SDS011;15458;53.346;-1.688;2022-11-11T05:39:40;6.55;;;1.45;;
28170;SDS011;15458;53.346;-1.688;2022-11-11T05:42:06;4.25;;;2.28;;
28170;SDS011;15458;53.346;-1.688;2022-11-11T05:44:33;5.20;;;1.35;;
28170;SDS011;15458;53.346;-1.688;2022-11-11T05:46:59;2.80;;;1.40;;
28170;SDS011;15458;53.346;-1.688;2022-11-11T05:49:24;5.03;;;1.60;;
28170;SDS011;15458;53.346;-1.688;2022-11-11T05:51:50;4.88;;;1.80;;
28170;SDS011;15458;53.346;-1.688;2022-11-11T05:54:28;4.13;;;1.42;;
28170;SDS011;15458;53.346;-1.688;2022-11-11T05:56:54;4.78;;;1.58;;
28170;SDS011;15458;53.346;-1.688;2022-11-11T05:59:20;3.80;;;1.65;;
28170;SDS011;15458;53.346;-1.688;2022-11-11T06:01:47;4.35;;;1.48;;
28170;SDS011;15458;53.346;-1.688;2022-11-11T06:04:14;3.92;;;1.33;;
28170;SDS011;15458;53.346;-1.688;2022-11-11T06:06:41;2.63;;;1.40;;
28170;SDS011;15458;53.346;-1.688;2022-11-11T06:09:06;6.25;;;1.83;;
28170;SDS011;15458;53.346;-1.688;2022-11-11T06:11:32;5.25;;;1.60;;
28170;SDS011;15458;53.346;-1.688;2022-11-11T06:14:00;1.98;;;1.48;;
28170;SDS011;15458;53.346;-1.688;2022-11-11T06:16:26;2.67;;;1.13;;
28170;SDS011;15458;53.346;-1.688;2022-11-11T06:18:52;6.50;;;1.50;;
28170;SDS011;15458;53.346;-1.688;2022-11-11T06:21:18;4.43;;;1.40;;
28170;SDS011;15458;53.346;-1.688;2022-11-11T06:23:44;1.90;;;0.93;;
28170;SDS011;15458;53.346;-1.688;2022-11-11T06:26:10;1.58;;;0.90;;
28170;SDS011;15458;53.346;-1.688;2022-11-11T06:28:54;3.20;;;1.38;;
28170;SDS011;15458;53.346;-1.688;2022-11-11T06:31:24;3.90;;;1.45;;
28170;SDS011;15458;53.346;-1.688;2022-11-11T06:36:17;4.90;;;1.30;;
28170;SDS011;15458;53.346;-1.688;2022-11-11T06:38:45;3.00;;;0.98;;
28170;SDS011;15458;53.346;-1.688;2022-11-11T06:41:11;3.05;;;1.45;;
28170;SDS011;15458;53.346;-1.688;2022-11-11T06:43:38;5.63;;;1.25;;
28170;SDS011;15458;53.346;-1.688;2022-11-11T06:46:04;4.50;;;1.10;;
28170;SDS011;15458;53.346;-1.688;2022-11-11T06:48:30;4.95;;;1.20;;
28170;SDS011;15458;53.346;-1.688;2022-11-11T06:51:05;4.05;;;1.40;;
28170;SDS011;15458;53.346;-1.688;2022-11-11T06:53:31;2.88;;;1.40;;
28170;SDS011;15458;53.346;-1.688;2022-11-11T06:55:57;3.92;;;1.35;;
28170;SDS011;15458;53.346;-1.688;2022-11-11T06:58:23;7.88;;;1.60;;
28170;SDS011;15458;53.346;-1.688;2022-11-11T07:00:49;3.85;;;1.60;;
28170;SDS011;15458;53.346;-1.688;2022-11-11T07:03:24;3.22;;;1.30;;
28170;SDS011;15458;53.346;-1.688;2022-11-11T07:05:50;2.70;;;1.45;;
28170;SDS011;15458;53.346;-1.688;2022-11-11T07:08:17;5.05;;;1.23;;
28170;SDS011;15458;53.346;-1.688;2022-11-11T07:10:46;1.85;;;1.10;;
28170;SDS011;15458;53.346;-1.688;2022-11-11T07:13:13;2.13;;;1.10;;
28170;SDS011;15458;53.346;-1.688;2022-11-11T07:15:40;6.60;;;1.30;;
28170;SDS011;15458;53.346;-1.688;2022-11-11T07:18:07;4.75;;;1.35;;
28170;SDS011;15458;53.346;-1.688;2022-11-11T07:20:33;5.10;;;1.55;;
28170;SDS011;15458;53.346;-1.688;2022-11-11T07:22:59;5.50;;;1.63;;
28170;SDS011;15458;53.346;-1.688;2022-11-11T07:25:27;4.18;;;1.45;;
28170;SDS011;15458;53.346;-1.688;2022-11-11T07:27:53;3.85;;;1.48;;
28170;SDS011;15458;53.346;-1.688;2022-11-11T07:30:18;6.13;;;1.92;;
28170;SDS011;15458;53.346;-1.688;2022-11-11T07:32:45;2.97;;;1.98;;
28170;SDS011;15458;53.346;-1.688;2022-11-11T07:35:16;6.57;;;2.15;;
28170;SDS011;15458;53.346;-1.688;2022-11-11T07:37:42;4.78;;;2.25;;
28170;SDS011;15458;53.346;-1.688;2022-11-11T07:40:09;6.88;;;2.10;;
28170;SDS011;15458;53.346;-1.688;2022-11-11T07:42:43;4.82;;;2.10;;
28170;SDS011;15458;53.346;-1.688;2022-11-11T07:45:09;6.07;;;2.13;;
28170;SDS011;15458;53.346;-1.688;2022-11-11T07:47:36;4.95;;;1.85;;
28170;SDS011;15458;53.346;-1.688;2022-11-11T07:50:03;5.00;;;1.67;;
28170;SDS011;15458;53.346;-1.688;2022-11-11T07:52:30;7.07;;;1.85;;
28170;SDS011;15458;53.346;-1.688;2022-11-11T07:54:56;6.65;;;2.30;;
28170;SDS011;15458;53.346;-1.688;2022-11-11T07:57:22;7.90;;;1.70;;
28170;SDS011;15458;53.346;-1.688;2022-11-11T07:59:49;8.68;;;1.80;;
28170;SDS011;15458;53.346;-1.688;2022-11-11T08:02:15;3.35;;;1.23;;
28170;SDS011;15458;53.346;-1.688;2022-11-11T08:04:41;6.72;;;2.45;;
28170;SDS011;15458;53.346;-1.688;2022-11-11T08:07:06;2.67;;;1.48;;
28170;SDS011;15458;53.346;-1.688;2022-11-11T08:09:32;7.60;;;1.45;;
28170;SDS011;15458;53.346;-1.688;2022-11-11T08:12:01;5.05;;;1.42;;
28170;SDS011;15458;53.346;-1.688;2022-11-11T08:14:47;7.35;;;1.30;;
28170;SDS011;15458;53.346;-1.688;2022-11-11T08:17:13;2.30;;;1.00;;
28170;SDS011;15458;53.346;-1.688;2022-11-11T08:19:40;1.38;;;1.05;;
28170;SDS011;15458;53.346;-1.688;2022-11-11T08:22:08;2.97;;;1.08;;
28170;SDS011;15458;53.346;-1.688;2022-11-11T08:24:34;6.22;;;1.23;;
28170;SDS011;15458;53.346;-1.688;2022-11-11T08:27:00;4.82;;;1.55;;
28170;SDS011;15458;53.346;-1.688;2022-11-11T08:29:26;4.15;;;1.27;;
28170;SDS011;15458;53.346;-1.688;2022-11-11T08:31:52;6.20;;;1.30;;
28170;SDS011;15458;53.346;-1.688;2022-11-11T08:34:20;2.78;;;1.10;;
28170;SDS011;15458;53.346;-1.688;2022-11-11T08:36:45;4.85;;;1.50;;
28170;SDS011;15458;53.346;-1.688;2022-11-11T08:39:14;5.50;;;1.50;;
28170;SDS011;15458;53.346;-1.688;2022-11-11T08:41:39;6.90;;;1.67;;
28170;SDS011;15458;53.346;-1.688;2022-11-11T08:44:05;3.22;;;1.05;;
28170;SDS011;15458;53.346;-1.688;2022-11-11T08:46:31;3.92;;;1.23;;
28170;SDS011;15458;53.346;-1.688;2022-11-11T08:48:56;8.30;;;1.80;;
28170;SDS011;15458;53.346;-1.688;2022-11-11T08:51:22;3.33;;;1.67;;
28170;SDS011;15458;53.346;-1.688;2022-11-11T08:53:48;9.13;;;1.60;;
28170;SDS011;15458;53.346;-1.688;2022-11-11T08:56:14;2.45;;;0.88;;
28170;SDS011;15458;53.346;-1.688;2022-11-11T08:58:40;3.25;;;1.42;;
28170;SDS011;15458;53.346;-1.688;2022-11-11T09:01:10;5.60;;;1.50;;
28170;SDS011;15458;53.346;-1.688;2022-11-11T09:03:37;2.08;;;1.48;;
28170;SDS011;15458;53.346;-1.688;2022-11-11T09:06:03;6.35;;;1.60;;
28170;SDS011;15458;53.346;-1.688;2022-11-11T09:08:29;9.20;;;1.95;;
28170;SDS011;15458;53.346;-1.688;2022-11-11T09:10:56;6.75;;;1.20;;
28170;SDS011;15458;53.346;-1.688;2022-11-11T09:13:22;7.25;;;1.75;;
28170;SDS011;15458;53.346;-1.688;2022-11-11T09:15:48;4.25;;;1.80;;
28170;SDS011;15458;53.346;-1.688;2022-11-11T09:18:14;6.30;;;2.05;;
28170;SDS011;15458;53.346;-1.688;2022-11-11T09:20:39;5.30;;;1.20;;
28170;SDS011;15458;53.346;-1.688;2022-11-11T09:23:05;5.18;;;1.10;;
28170;SDS011;15458;53.346;-1.688;2022-11-11T09:25:31;7.05;;;1.30;;
28170;SDS011;15458;53.346;-1.688;2022-11-11T09:27:57;4.93;;;1.17;;
28170;SDS011;15458;53.346;-1.688;2022-11-11T09:30:25;6.22;;;1.48;;
28170;SDS011;15458;53.346;-1.688;2022-11-11T09:32:52;6.32;;;1.70;;
28170;SDS011;15458;53.346;-1.688;2022-11-11T09:35:18;5.88;;;1.75;;
28170;SDS011;15458;53.346;-1.688;2022-11-11T09:37:56;3.88;;;1.40;;
28170;SDS011;15458;53.346;-1.688;2022-11-11T09:40:24;6.88;;;1.17;;
28170;SDS011;15458;53.346;-1.688;2022-11-11T09:43:08;2.70;;;1.40;;
28170;SDS011;15458;53.346;-1.688;2022-11-11T09:51:34;4.40;;;1.60;;
28170;SDS011;15458;53.346;-1.688;2022-11-11T09:54:44;3.90;;;1.58;;
28170;SDS011;15458;53.346;-1.688;2022-11-11T09:57:38;5.78;;;2.17;;
28170;SDS011;15458;53.346;-1.688;2022-11-11T10:00:23;19.30;;;7.38;;
28170;SDS011;15458;53.346;-1.688;2022-11-11T10:05:33;18.88;;;6.00;;
28170;SDS011;15458;53.346;-1.688;2022-11-11T10:08:27;17.52;;;6.07;;
28170;SDS011;15458;53.346;-1.688;2022-11-11T10:10:57;13.07;;;4.03;;
28170;SDS011;15458;53.346;-1.688;2022-11-11T10:13:31;8.55;;;3.40;;
28170;SDS011;15458;53.346;-1.688;2022-11-11T10:21:56;3.75;;;1.52;;
28170;SDS011;15458;53.346;-1.688;2022-11-11T10:27:28;4.72;;;1.40;;
28170;SDS011;15458;53.346;-1.688;2022-11-11T10:29:54;3.10;;;1.13;;
28170;SDS011;15458;53.346;-1.688;2022-11-11T10:32:21;5.47;;;1.70;;
28170;SDS011;15458;53.346;-1.688;2022-11-11T10:34:49;7.07;;;1.80;;
28170;SDS011;15458;53.346;-1.688;2022-11-11T10:37:38;3.47;;;1.85;;
28170;SDS011;15458;53.346;-1.688;2022-11-11T10:40:11;7.05;;;2.55;;
28170;SDS011;15458;53.346;-1.688;2022-11-11T10:42:48;4.30;;;1.40;;
28170;SDS011;15458;53.346;-1.688;2022-11-11T10:48:16;4.70;;;1.40;;
28170;SDS011;15458;53.346;-1.688;2022-11-11T10:50:54;6.22;;;1.80;;
28170;SDS011;15458;53.346;-1.688;2022-11-11T10:53:35;8.40;;;2.35;;
28170;SDS011;15458;53.346;-1.688;2022-11-11T10:59:12;5.80;;;1.75;;
28170;SDS011;15458;53.346;-1.688;2022-11-11T11:06:50;7.25;;;1.70;;
28170;SDS011;15458;53.346;-1.688;2022-11-11T11:09:21;6.30;;;1.90;;
28170;SDS011;15458;53.346;-1.688;2022-11-11T11:11:54;3.45;;;1.38;;
28170;SDS011;15458;53.346;-1.688;2022-11-11T11:14:38;6.70;;;1.60;;
28170;SDS011;15458;53.346;-1.688;2022-11-11T11:17:10;8.73;;;1.60;;
28170;SDS011;15458;53.346;-1.688;2022-11-11T11:19:48;4.65;;;1.55;;
28170;SDS011;15458;53.346;-1.688;2022-11-11T11:22:44;5.07;;;1.30;;
28170;SDS011;15458;53.346;-1.688;2022-11-11T11:25:21;7.20;;;2.03;;
28170;SDS011;15458;53.346;-1.688;2022-11-11T11:27:53;5.75;;;2.03;;
28170;SDS011;15458;53.346;-1.688;2022-11-11T11:30:38;4.90;;;1.45;;
28170;SDS011;15458;53.346;-1.688;2022-11-11T11:33:23;7.43;;;1.60;;
28170;SDS011;15458;53.346;-1.688;2022-11-11T11:35:52;9.10;;;1.70;;
28170;SDS011;15458;53.346;-1.688;2022-11-11T11:38:18;8.43;;;1.70;;
28170;SDS011;15458;53.346;-1.688;2022-11-11T11:43:46;5.57;;;1.70;;
28170;SDS011;15458;53.346;-1.688;2022-11-11T11:48:59;10.40;;;2.35;;
28170;SDS011;15458;53.346;-1.688;2022-11-11T11:52:01;7.18;;;1.70;;
28170;SDS011;15458;53.346;-1.688;2022-11-11T12:00:14;5.80;;;1.33;;
28170;SDS011;15458;53.346;-1.688;2022-11-11T12:05:49;3.30;;;1.30;;
28170;SDS011;15458;53.346;-1.688;2022-11-11T12:11:15;5.10;;;1.60;;
28170;SDS011;15458;53.346;-1.688;2022-11-11T12:16:46;7.75;;;1.55;;
28170;SDS011;15458;53.346;-1.688;2022-11-11T12:23:24;4.57;;;1.70;;
28170;SDS011;15458;53.346;-1.688;2022-11-11T12:25:55;8.35;;;2.20;;
28170;SDS011;15458;53.346;-1.688;2022-11-11T12:28:48;5.25;;;1.10;;
28170;SDS011;15458;53.346;-1.688;2022-11-11T12:31:30;3.13;;;0.88;;
28170;SDS011;15458;53.346;-1.688;2022-11-11T12:39:27;3.63;;;1.05;;
28170;SDS011;15458;53.346;-1.688;2022-11-11T12:42:16;3.03;;;1.40;;
28170;SDS011;15458;53.346;-1.688;2022-11-11T12:47:25;9.23;;;1.80;;
28170;SDS011;15458;53.346;-1.688;2022-11-11T12:50:17;2.47;;;1.38;;
28170;SDS011;15458;53.346;-1.688;2022-11-11T12:55:29;5.68;;;1.48;;
28170;SDS011;15458;53.346;-1.688;2022-11-11T13:06:42;2.38;;;1.00;;
28170;SDS011;15458;53.346;-1.688;2022-11-11T13:09:48;2.75;;;0.63;;
28170;SDS011;15458;53.346;-1.688;2022-11-11T13:12:38;4.20;;;1.00;;
28170;SDS011;15458;53.346;-1.688;2022-11-11T13:15:22;2.47;;;0.90;;
28170;SDS011;15458;53.346;-1.688;2022-11-11T13:17:50;3.72;;;0.70;;
28170;SDS011;15458;53.346;-1.688;2022-11-11T13:22:57;2.58;;;0.70;;
28170;SDS011;15458;53.346;-1.688;2022-11-11T13:25:23;10.93;;;1.25;;
28170;SDS011;15458;53.346;-1.688;2022-11-11T13:27:54;1.70;;;0.70;;
28170;SDS011;15458;53.346;-1.688;2022-11-11T13:33:12;1.90;;;0.98;;
28170;SDS011;15458;53.346;-1.688;2022-11-11T13:35:44;3.58;;;0.93;;
28170;SDS011;15458;53.346;-1.688;2022-11-11T13:38:26;2.38;;;0.60;;
28170;SDS011;15458;53.346;-1.688;2022-11-11T13:40:59;1.95;;;0.57;;
28170;SDS011;15458;53.346;-1.688;2022-11-11T13:46:11;1.85;;;0.70;;
28170;SDS011;15458;53.346;-1.688;2022-11-11T13:48:48;5.38;;;1.00;;
28170;SDS011;15458;53.346;-1.688;2022-11-11T13:53:48;5.15;;;1.02;;
28170;SDS011;15458;53.346;-1.688;2022-11-11T13:56:28;1.85;;;0.65;;
28170;SDS011;15458;53.346;-1.688;2022-11-11T13:58:56;3.97;;;1.10;;
28170;SDS011;15458;53.346;-1.688;2022-11-11T14:01:25;1.98;;;0.88;;
28170;SDS011;15458;53.346;-1.688;2022-11-11T14:04:02;2.45;;;0.80;;
28170;SDS011;15458;53.346;-1.688;2022-11-11T14:08:58;3.53;;;1.10;;
28170;SDS011;15458;53.346;-1.688;2022-11-11T14:13:50;2.30;;;0.75;;
28170;SDS011;15458;53.346;-1.688;2022-11-11T14:18:59;3.53;;;0.93;;
28170;SDS011;15458;53.346;-1.688;2022-11-11T14:21:41;4.53;;;1.00;;
28170;SDS011;15458;53.346;-1.688;2022-11-11T14:24:10;3.90;;;0.80;;
28170;SDS011;15458;53.346;-1.688;2022-11-11T14:26:55;1.60;;;0.70;;
28170;SDS011;15458;53.346;-1.688;2022-11-11T14:29:23;5.18;;;0.77;;
28170;SDS011;15458;53.346;-1.688;2022-11-11T14:37:56;2.63;;;0.88;;
28170;SDS011;15458;53.346;-1.688;2022-11-11T14:40:30;6.65;;;1.50;;
28170;SDS011;15458;53.346;-1.688;2022-11-11T14:42:57;5.03;;;1.10;;
28170;SDS011;15458;53.346;-1.688;2022-11-11T14:47:59;3.40;;;0.98;;
28170;SDS011;15458;53.346;-1.688;2022-11-11T14:53:00;2.17;;;0.85;;
28170;SDS011;15458;53.346;-1.688;2022-11-11T14:55:33;4.75;;;0.88;;
28170;SDS011;15458;53.346;-1.688;2022-11-11T15:00:48;2.10;;;1.00;;
28170;SDS011;15458;53.346;-1.688;2022-11-11T15:06:05;4.32;;;1.10;;
28170;SDS011;15458;53.346;-1.688;2022-11-11T15:11:44;1.90;;;0.90;;
28170;SDS011;15458;53.346;-1.688;2022-11-11T15:17:12;2.45;;;1.02;;
28170;SDS011;15458;53.346;-1.688;2022-11-11T15:20:21;1.67;;;0.80;;
28170;SDS011;15458;53.346;-1.688;2022-11-11T15:26:21;2.50;;;0.88;;
28170;SDS011;15458;53.346;-1.688;2022-11-11T15:31:20;2.92;;;0.90;;
28170;SDS011;15458;53.346;-1.688;2022-11-11T15:37:10;5.95;;;1.83;;
28170;SDS011;15458;53.346;-1.688;2022-11-11T15:39:46;3.55;;;0.85;;
28170;SDS011;15458;53.346;-1.688;2022-11-11T15:42:26;2.00;;;1.10;;
28170;SDS011;15458;53.346;-1.688;2022-11-11T15:45:05;3.15;;;1.15;;
28170;SDS011;15458;53.346;-1.688;2022-11-11T15:47:47;4.70;;;1.02;;
28170;SDS011;15458;53.346;-1.688;2022-11-11T15:50:15;4.40;;;1.08;;
28170;SDS011;15458;53.346;-1.688;2022-11-11T15:52:42;1.98;;;1.10;;
28170;SDS011;15458;53.346;-1.688;2022-11-11T15:55:22;4.75;;;0.90;;
28170;SDS011;15458;53.346;-1.688;2022-11-11T15:57:54;2.65;;;1.10;;
28170;SDS011;15458;53.346;-1.688;2022-11-11T16:00:25;4.30;;;0.85;;
28170;SDS011;15458;53.346;-1.688;2022-11-11T16:02:53;4.07;;;1.17;;
28170;SDS011;15458;53.346;-1.688;2022-11-11T16:05:24;3.40;;;1.10;;
28170;SDS011;15458;53.346;-1.688;2022-11-11T16:10:20;3.97;;;1.20;;
28170;SDS011;15458;53.346;-1.688;2022-11-11T16:13:00;5.68;;;1.50;;
28170;SDS011;15458;53.346;-1.688;2022-11-11T16:18:24;8.90;;;1.45;;
28170;SDS011;15458;53.346;-1.688;2022-11-11T16:23:24;3.55;;;1.88;;
28170;SDS011;15458;53.346;-1.688;2022-11-11T16:25:51;3.97;;;1.45;;
28170;SDS011;15458;53.346;-1.688;2022-11-11T16:28:17;4.32;;;1.73;;
28170;SDS011;15458;53.346;-1.688;2022-11-11T16:30:43;6.60;;;1.92;;
28170;SDS011;15458;53.346;-1.688;2022-11-11T16:35:50;4.57;;;1.40;;
28170;SDS011;15458;53.346;-1.688;2022-11-11T16:38:31;6.85;;;2.00;;
28170;SDS011;15458;53.346;-1.688;2022-11-11T16:40:58;9.23;;;2.05;;
28170;SDS011;15458;53.346;-1.688;2022-11-11T16:43:33;8.38;;;2.05;;
28170;SDS011;15458;53.346;-1.688;2022-11-11T16:46:11;5.80;;;1.75;;
28170;SDS011;15458;53.346;-1.688;2022-11-11T16:48:45;6.13;;;1.50;;
28170;SDS011;15458;53.346;-1.688;2022-11-11T16:51:15;5.50;;;1.42;;
28170;SDS011;15458;53.346;-1.688;2022-11-11T16:56:15;7.15;;;2.17;;
28170;SDS011;15458;53.346;-1.688;2022-11-11T16:58:52;4.60;;;1.70;;
28170;SDS011;15458;53.346;-1.688;2022-11-11T17:01:21;6.18;;;2.00;;
28170;SDS011;15458;53.346;-1.688;2022-11-11T17:03:59;4.40;;;1.98;;
28170;SDS011;15458;53.346;-1.688;2022-11-11T17:12:06;5.47;;;1.90;;
28170;SDS011;15458;53.346;-1.688;2022-11-11T17:14:33;8.80;;;2.00;;
28170;SDS011;15458;53.346;-1.688;2022-11-11T17:17:01;7.13;;;2.30;;
28170;SDS011;15458;53.346;-1.688;2022-11-11T17:19:29;4.47;;;1.65;;
28170;SDS011;15458;53.346;-1.688;2022-11-11T17:22:07;5.88;;;2.40;;
28170;SDS011;15458;53.346;-1.688;2022-11-11T17:24:35;8.75;;;1.92;;
28170;SDS011;15458;53.346;-1.688;2022-11-11T17:27:00;5.88;;;2.15;;
28170;SDS011;15458;53.346;-1.688;2022-11-11T17:29:27;5.47;;;2.30;;
28170;SDS011;15458;53.346;-1.688;2022-11-11T17:31:52;7.82;;;2.17;;
28170;SDS011;15458;53.346;-1.688;2022-11-11T17:34:18;6.75;;;1.98;;